sensor_id;sensor_type;location;lat;lon;timestamp;temperature;humidity
8633;DHT22;4354;49.832;10.746;2022-07-19T00:00:16;15.30;99.90
8633;DHT22;4354;49.832;10.746;2022-07-19T00:02:45;15.20;99.90
8633;DHT22;4354;49.832;10.746;2022-07-19T00:05:13;15.20;99.90
8633;DHT22;4354;49.832;10.746;2022-07-19T00:07:40;15.20;99.90
8633;DHT22;4354;49.832;10.746;2022-07-19T00:10:09;15.10;99.90
8633;DHT22;4354;49.832;10.746;2022-07-19T00:12:36;15.00;99.90
8633;DHT22;4354;49.832;10.746;2022-07-19T00:15:05;15.20;99.90
8633;DHT22;4354;49.832;10.746;2022-07-19T00:17:33;15.00;99.90
8633;DHT22;4354;49.832;10.746;2022-07-19T00:20:00;14.90;99.90
8633;DHT22;4354;49.832;10.746;2022-07-19T00:22:27;14.80;99.90
8633;DHT22;4354;49.832;10.746;2022-07-19T00:24:54;14.80;99.90
8633;DHT22;4354;49.832;10.746;2022-07-19T00:27:21;14.80;99.90
8633;DHT22;4354;49.832;10.746;2022-07-19T00:29:49;14.80;99.90
8633;DHT22;4354;49.832;10.746;2022-07-19T00:32:16;14.80;99.90
8633;DHT22;4354;49.832;10.746;2022-07-19T00:34:43;14.70;99.90
8633;DHT22;4354;49.832;10.746;2022-07-19T00:37:09;14.60;99.90
8633;DHT22;4354;49.832;10.746;2022-07-19T00:39:36;14.70;99.90
8633;DHT22;4354;49.832;10.746;2022-07-19T00:42:03;14.60;99.90
8633;DHT22;4354;49.832;10.746;2022-07-19T00:44:30;14.60;99.90
8633;DHT22;4354;49.832;10.746;2022-07-19T00:46:57;14.50;99.90
8633;DHT22;4354;49.832;10.746;2022-07-19T00:49:24;14.40;99.90
8633;DHT22;4354;49.832;10.746;2022-07-19T00:51:51;14.40;99.90
8633;DHT22;4354;49.832;10.746;2022-07-19T00:54:22;14.30;99.90
8633;DHT22;4354;49.832;10.746;2022-07-19T00:56:51;14.30;99.90
8633;DHT22;4354;49.832;10.746;2022-07-19T00:59:18;14.30;99.90
8633;DHT22;4354;49.832;10.746;2022-07-19T01:01:45;14.20;99.90
8633;DHT22;4354;49.832;10.746;2022-07-19T01:04:13;14.20;99.90
8633;DHT22;4354;49.832;10.746;2022-07-19T01:06:41;14.20;99.90
8633;DHT22;4354;49.832;10.746;2022-07-19T01:09:08;14.20;99.90
8633;DHT22;4354;49.832;10.746;2022-07-19T01:11:35;14.20;99.90
8633;DHT22;4354;49.832;10.746;2022-07-19T01:14:03;14.10;99.90
8633;DHT22;4354;49.832;10.746;2022-07-19T01:16:30;14.00;99.90
8633;DHT22;4354;49.832;10.746;2022-07-19T01:18:57;14.00;99.90
8633;DHT22;4354;49.832;10.746;2022-07-19T01:21:25;13.90;99.90
8633;DHT22;4354;49.832;10.746;2022-07-19T01:23:53;13.90;99.90
8633;DHT22;4354;49.832;10.746;2022-07-19T01:26:20;13.80;99.90
8633;DHT22;4354;49.832;10.746;2022-07-19T01:28:47;13.70;99.90
8633;DHT22;4354;49.832;10.746;2022-07-19T01:31:14;13.60;99.90
8633;DHT22;4354;49.832;10.746;2022-07-19T01:33:42;13.60;99.90
8633;DHT22;4354;49.832;10.746;2022-07-19T01:36:11;13.60;99.90
8633;DHT22;4354;49.832;10.746;2022-07-19T01:38:38;13.50;99.90
8633;DHT22;4354;49.832;10.746;2022-07-19T01:41:19;13.50;99.90
8633;DHT22;4354;49.832;10.746;2022-07-19T01:43:46;13.50;99.90
8633;DHT22;4354;49.832;10.746;2022-07-19T01:46:13;13.50;99.90
8633;DHT22;4354;49.832;10.746;2022-07-19T01:48:40;13.40;99.90
8633;DHT22;4354;49.832;10.746;2022-07-19T01:51:07;13.80;99.90
8633;DHT22;4354;49.832;10.746;2022-07-19T01:53:33;13.20;99.90
8633;DHT22;4354;49.832;10.746;2022-07-19T01:56:04;13.30;99.90
8633;DHT22;4354;49.832;10.746;2022-07-19T01:58:31;13.30;99.90
8633;DHT22;4354;49.832;10.746;2022-07-19T02:00:58;13.20;99.90
8633;DHT22;4354;49.832;10.746;2022-07-19T02:03:25;13.10;99.90
8633;DHT22;4354;49.832;10.746;2022-07-19T02:05:52;13.10;99.90
8633;DHT22;4354;49.832;10.746;2022-07-19T02:08:19;13.10;99.90
8633;DHT22;4354;49.832;10.746;2022-07-19T02:10:46;13.00;99.90
8633;DHT22;4354;49.832;10.746;2022-07-19T02:13:13;13.00;99.90
8633;DHT22;4354;49.832;10.746;2022-07-19T02:15:40;12.90;99.90
8633;DHT22;4354;49.832;10.746;2022-07-19T02:18:07;12.90;99.90
8633;DHT22;4354;49.832;10.746;2022-07-19T02:20:34;12.90;99.90
8633;DHT22;4354;49.832;10.746;2022-07-19T02:23:00;12.90;99.90
8633;DHT22;4354;49.832;10.746;2022-07-19T02:25:27;12.90;99.90
8633;DHT22;4354;49.832;10.746;2022-07-19T02:27:54;12.80;99.90
8633;DHT22;4354;49.832;10.746;2022-07-19T02:30:21;12.80;99.90
8633;DHT22;4354;49.832;10.746;2022-07-19T02:32:48;12.80;99.90
8633;DHT22;4354;49.832;10.746;2022-07-19T02:35:15;12.80;99.90
8633;DHT22;4354;49.832;10.746;2022-07-19T02:37:43;12.80;99.90
8633;DHT22;4354;49.832;10.746;2022-07-19T02:40:11;12.70;99.90
8633;DHT22;4354;49.832;10.746;2022-07-19T02:42:38;12.70;99.90
8633;DHT22;4354;49.832;10.746;2022-07-19T02:45:05;12.60;99.90
8633;DHT22;4354;49.832;10.746;2022-07-19T02:47:32;12.60;99.90
8633;DHT22;4354;49.832;10.746;2022-07-19T02:49:59;12.60;99.90
8633;DHT22;4354;49.832;10.746;2022-07-19T02:52:28;12.60;99.90
8633;DHT22;4354;49.832;10.746;2022-07-19T02:54:56;12.50;99.90
8633;DHT22;4354;49.832;10.746;2022-07-19T02:57:23;12.40;99.90
8633;DHT22;4354;49.832;10.746;2022-07-19T02:59:50;12.30;99.90
8633;DHT22;4354;49.832;10.746;2022-07-19T03:02:17;12.30;99.90
8633;DHT22;4354;49.832;10.746;2022-07-19T03:04:43;12.40;99.90
8633;DHT22;4354;49.832;10.746;2022-07-19T03:07:10;12.30;99.90
8633;DHT22;4354;49.832;10.746;2022-07-19T03:09:37;12.20;99.90
8633;DHT22;4354;49.832;10.746;2022-07-19T03:12:04;12.30;99.90
8633;DHT22;4354;49.832;10.746;2022-07-19T03:14:31;12.20;99.90
8633;DHT22;4354;49.832;10.746;2022-07-19T03:16:58;12.20;99.90
8633;DHT22;4354;49.832;10.746;2022-07-19T03:19:25;12.10;99.90
8633;DHT22;4354;49.832;10.746;2022-07-19T03:21:53;12.10;99.90
8633;DHT22;4354;49.832;10.746;2022-07-19T03:24:20;12.10;99.90
8633;DHT22;4354;49.832;10.746;2022-07-19T03:26:47;12.00;99.90
8633;DHT22;4354;49.832;10.746;2022-07-19T03:29:14;12.00;99.90
8633;DHT22;4354;49.832;10.746;2022-07-19T03:31:41;11.90;99.90
8633;DHT22;4354;49.832;10.746;2022-07-19T03:34:08;11.90;99.90
8633;DHT22;4354;49.832;10.746;2022-07-19T03:36:35;11.90;99.90
8633;DHT22;4354;49.832;10.746;2022-07-19T03:39:02;12.00;99.90
8633;DHT22;4354;49.832;10.746;2022-07-19T03:41:29;12.00;99.90
8633;DHT22;4354;49.832;10.746;2022-07-19T03:43:56;11.90;99.90
8633;DHT22;4354;49.832;10.746;2022-07-19T03:46:23;11.90;99.90
8633;DHT22;4354;49.832;10.746;2022-07-19T03:48:51;11.90;99.90
8633;DHT22;4354;49.832;10.746;2022-07-19T03:51:18;11.90;99.90
8633;DHT22;4354;49.832;10.746;2022-07-19T03:53:45;11.90;99.90
8633;DHT22;4354;49.832;10.746;2022-07-19T03:56:14;11.90;99.90
8633;DHT22;4354;49.832;10.746;2022-07-19T03:58:41;11.90;99.90
8633;DHT22;4354;49.832;10.746;2022-07-19T04:01:08;12.00;99.90
8633;DHT22;4354;49.832;10.746;2022-07-19T04:03:39;12.00;99.90
8633;DHT22;4354;49.832;10.746;2022-07-19T04:06:07;12.10;99.90
8633;DHT22;4354;49.832;10.746;2022-07-19T04:08:34;12.30;99.90
8633;DHT22;4354;49.832;10.746;2022-07-19T04:11:04;12.10;99.90
8633;DHT22;4354;49.832;10.746;2022-07-19T04:13:35;12.40;99.90
8633;DHT22;4354;49.832;10.746;2022-07-19T04:16:03;12.50;99.90
8633;DHT22;4354;49.832;10.746;2022-07-19T04:18:30;12.50;99.90
8633;DHT22;4354;49.832;10.746;2022-07-19T04:20:57;12.60;99.90
8633;DHT22;4354;49.832;10.746;2022-07-19T04:23:24;12.60;99.90
8633;DHT22;4354;49.832;10.746;2022-07-19T04:25:51;12.70;99.90
8633;DHT22;4354;49.832;10.746;2022-07-19T04:28:18;12.70;99.90
8633;DHT22;4354;49.832;10.746;2022-07-19T04:30:45;12.70;99.90
8633;DHT22;4354;49.832;10.746;2022-07-19T04:33:16;12.80;99.90
8633;DHT22;4354;49.832;10.746;2022-07-19T04:35:44;12.90;99.90
8633;DHT22;4354;49.832;10.746;2022-07-19T04:38:12;12.90;99.90
8633;DHT22;4354;49.832;10.746;2022-07-19T04:40:39;13.10;99.90
8633;DHT22;4354;49.832;10.746;2022-07-19T04:43:06;13.20;99.90
8633;DHT22;4354;49.832;10.746;2022-07-19T04:45:33;13.30;99.90
8633;DHT22;4354;49.832;10.746;2022-07-19T04:48:00;13.30;99.90
8633;DHT22;4354;49.832;10.746;2022-07-19T04:50:27;13.40;99.90
8633;DHT22;4354;49.832;10.746;2022-07-19T04:52:59;13.50;99.90
8633;DHT22;4354;49.832;10.746;2022-07-19T04:55:26;13.50;99.90
8633;DHT22;4354;49.832;10.746;2022-07-19T04:57:53;13.50;99.90
8633;DHT22;4354;49.832;10.746;2022-07-19T05:00:20;13.60;99.90
8633;DHT22;4354;49.832;10.746;2022-07-19T05:02:47;13.70;99.90
8633;DHT22;4354;49.832;10.746;2022-07-19T05:05:14;13.80;99.90
8633;DHT22;4354;49.832;10.746;2022-07-19T05:07:41;13.90;99.90
8633;DHT22;4354;49.832;10.746;2022-07-19T05:10:10;14.00;99.90
8633;DHT22;4354;49.832;10.746;2022-07-19T05:12:38;14.10;99.90
8633;DHT22;4354;49.832;10.746;2022-07-19T05:15:06;14.20;99.90
8633;DHT22;4354;49.832;10.746;2022-07-19T05:17:41;14.30;99.90
8633;DHT22;4354;49.832;10.746;2022-07-19T05:20:09;14.40;99.90
8633;DHT22;4354;49.832;10.746;2022-07-19T05:22:37;14.50;99.90
8633;DHT22;4354;49.832;10.746;2022-07-19T05:25:09;14.60;99.90
8633;DHT22;4354;49.832;10.746;2022-07-19T05:27:37;14.70;99.90
8633;DHT22;4354;49.832;10.746;2022-07-19T05:30:05;14.90;99.90
8633;DHT22;4354;49.832;10.746;2022-07-19T05:32:32;15.00;99.90
8633;DHT22;4354;49.832;10.746;2022-07-19T05:34:59;15.00;99.90
8633;DHT22;4354;49.832;10.746;2022-07-19T05:37:26;15.20;99.90
8633;DHT22;4354;49.832;10.746;2022-07-19T05:39:52;15.30;99.90
8633;DHT22;4354;49.832;10.746;2022-07-19T05:42:20;15.40;99.90
8633;DHT22;4354;49.832;10.746;2022-07-19T05:44:47;15.40;99.90
8633;DHT22;4354;49.832;10.746;2022-07-19T05:47:13;15.50;99.90
8633;DHT22;4354;49.832;10.746;2022-07-19T05:49:42;15.60;99.90
8633;DHT22;4354;49.832;10.746;2022-07-19T05:52:09;15.70;99.90
8633;DHT22;4354;49.832;10.746;2022-07-19T05:54:36;15.80;99.90
8633;DHT22;4354;49.832;10.746;2022-07-19T05:57:03;16.00;99.90
8633;DHT22;4354;49.832;10.746;2022-07-19T05:59:30;16.10;99.90
8633;DHT22;4354;49.832;10.746;2022-07-19T06:01:56;16.30;99.90
8633;DHT22;4354;49.832;10.746;2022-07-19T06:04:23;16.40;99.90
8633;DHT22;4354;49.832;10.746;2022-07-19T06:06:50;16.60;99.90
8633;DHT22;4354;49.832;10.746;2022-07-19T06:09:17;16.80;99.90
8633;DHT22;4354;49.832;10.746;2022-07-19T06:11:44;16.90;99.90
8633;DHT22;4354;49.832;10.746;2022-07-19T06:14:11;17.10;99.90
8633;DHT22;4354;49.832;10.746;2022-07-19T06:16:39;17.30;99.90
8633;DHT22;4354;49.832;10.746;2022-07-19T06:19:08;17.50;99.90
8633;DHT22;4354;49.832;10.746;2022-07-19T06:21:35;17.70;99.90
8633;DHT22;4354;49.832;10.746;2022-07-19T06:24:02;17.90;99.90
8633;DHT22;4354;49.832;10.746;2022-07-19T06:26:29;18.10;99.90
8633;DHT22;4354;49.832;10.746;2022-07-19T06:28:56;18.30;99.90
8633;DHT22;4354;49.832;10.746;2022-07-19T06:31:23;18.50;99.90
8633;DHT22;4354;49.832;10.746;2022-07-19T06:33:51;18.70;99.90
8633;DHT22;4354;49.832;10.746;2022-07-19T06:36:21;19.00;99.90
8633;DHT22;4354;49.832;10.746;2022-07-19T06:38:50;19.20;99.90
8633;DHT22;4354;49.832;10.746;2022-07-19T06:41:17;19.50;99.90
8633;DHT22;4354;49.832;10.746;2022-07-19T06:43:44;19.80;99.90
8633;DHT22;4354;49.832;10.746;2022-07-19T06:46:11;20.00;99.90
8633;DHT22;4354;49.832;10.746;2022-07-19T06:48:38;20.20;99.90
8633;DHT22;4354;49.832;10.746;2022-07-19T06:51:06;20.40;99.90
8633;DHT22;4354;49.832;10.746;2022-07-19T06:53:34;20.70;99.90
8633;DHT22;4354;49.832;10.746;2022-07-19T06:56:01;21.00;99.90
8633;DHT22;4354;49.832;10.746;2022-07-19T06:58:28;21.20;99.90
8633;DHT22;4354;49.832;10.746;2022-07-19T07:00:56;21.60;99.90
8633;DHT22;4354;49.832;10.746;2022-07-19T07:03:23;22.00;99.90
8633;DHT22;4354;49.832;10.746;2022-07-19T07:05:51;22.40;99.90
8633;DHT22;4354;49.832;10.746;2022-07-19T07:08:18;22.90;99.90
8633;DHT22;4354;49.832;10.746;2022-07-19T07:10:44;23.70;99.90
8633;DHT22;4354;49.832;10.746;2022-07-19T07:13:11;24.80;99.50
8633;DHT22;4354;49.832;10.746;2022-07-19T07:15:39;26.20;97.80
8633;DHT22;4354;49.832;10.746;2022-07-19T07:18:06;27.90;91.00
8633;DHT22;4354;49.832;10.746;2022-07-19T07:20:33;29.70;80.00
8633;DHT22;4354;49.832;10.746;2022-07-19T07:23:02;30.80;70.50
8633;DHT22;4354;49.832;10.746;2022-07-19T07:25:29;31.80;66.60
8633;DHT22;4354;49.832;10.746;2022-07-19T07:27:56;33.40;61.90
8633;DHT22;4354;49.832;10.746;2022-07-19T07:30:23;34.40;57.70
8633;DHT22;4354;49.832;10.746;2022-07-19T07:32:49;35.40;54.40
8633;DHT22;4354;49.832;10.746;2022-07-19T07:35:16;36.60;50.40
8633;DHT22;4354;49.832;10.746;2022-07-19T07:37:43;37.60;47.40
8633;DHT22;4354;49.832;10.746;2022-07-19T07:40:12;38.50;44.90
8633;DHT22;4354;49.832;10.746;2022-07-19T07:42:39;38.00;42.70
8633;DHT22;4354;49.832;10.746;2022-07-19T07:45:06;38.30;42.10
8633;DHT22;4354;49.832;10.746;2022-07-19T07:47:36;39.00;42.00
8633;DHT22;4354;49.832;10.746;2022-07-19T07:50:05;39.80;40.50
8633;DHT22;4354;49.832;10.746;2022-07-19T07:52:33;40.60;37.80
8633;DHT22;4354;49.832;10.746;2022-07-19T07:55:00;41.10;36.80
8633;DHT22;4354;49.832;10.746;2022-07-19T07:57:47;41.10;36.80
8633;DHT22;4354;49.832;10.746;2022-07-19T08:00:15;41.60;35.60
8633;DHT22;4354;49.832;10.746;2022-07-19T08:02:43;41.80;35.30
8633;DHT22;4354;49.832;10.746;2022-07-19T08:05:11;41.60;35.60
8633;DHT22;4354;49.832;10.746;2022-07-19T08:07:38;41.70;35.60
8633;DHT22;4354;49.832;10.746;2022-07-19T08:10:07;42.00;35.10
8633;DHT22;4354;49.832;10.746;2022-07-19T08:12:34;42.80;33.40
8633;DHT22;4354;49.832;10.746;2022-07-19T08:15:01;42.30;33.20
8633;DHT22;4354;49.832;10.746;2022-07-19T08:17:28;43.30;32.50
8633;DHT22;4354;49.832;10.746;2022-07-19T08:19:55;41.70;33.40
8633;DHT22;4354;49.832;10.746;2022-07-19T08:22:22;42.80;33.20
8633;DHT22;4354;49.832;10.746;2022-07-19T08:24:49;43.80;31.10
8633;DHT22;4354;49.832;10.746;2022-07-19T08:27:16;44.60;31.00
8633;DHT22;4354;49.832;10.746;2022-07-19T08:29:43;45.00;29.50
8633;DHT22;4354;49.832;10.746;2022-07-19T08:32:10;43.70;29.40
8633;DHT22;4354;49.832;10.746;2022-07-19T08:34:37;43.50;28.40
8633;DHT22;4354;49.832;10.746;2022-07-19T08:37:04;43.40;29.60
8633;DHT22;4354;49.832;10.746;2022-07-19T08:39:31;43.30;29.20
8633;DHT22;4354;49.832;10.746;2022-07-19T08:41:58;43.70;28.80
8633;DHT22;4354;49.832;10.746;2022-07-19T08:44:25;43.30;28.70
8633;DHT22;4354;49.832;10.746;2022-07-19T08:46:53;43.60;28.80
8633;DHT22;4354;49.832;10.746;2022-07-19T08:49:21;43.30;29.20
8633;DHT22;4354;49.832;10.746;2022-07-19T08:51:48;42.00;28.50
8633;DHT22;4354;49.832;10.746;2022-07-19T08:54:15;42.10;29.40
8633;DHT22;4354;49.832;10.746;2022-07-19T08:56:42;41.90;28.60
8633;DHT22;4354;49.832;10.746;2022-07-19T08:59:28;41.70;29.80
8633;DHT22;4354;49.832;10.746;2022-07-19T09:01:55;42.90;29.20
8633;DHT22;4354;49.832;10.746;2022-07-19T09:04:22;43.00;28.50
8633;DHT22;4354;49.832;10.746;2022-07-19T09:06:54;42.80;28.10
8633;DHT22;4354;49.832;10.746;2022-07-19T09:09:28;42.70;28.00
8633;DHT22;4354;49.832;10.746;2022-07-19T09:11:57;43.30;28.30
8633;DHT22;4354;49.832;10.746;2022-07-19T09:14:33;43.10;27.30
8633;DHT22;4354;49.832;10.746;2022-07-19T09:17:09;43.10;28.20
8633;DHT22;4354;49.832;10.746;2022-07-19T09:19:48;43.10;27.70
8633;DHT22;4354;49.832;10.746;2022-07-19T09:22:18;43.30;27.40
8633;DHT22;4354;49.832;10.746;2022-07-19T09:24:49;43.00;27.80
8633;DHT22;4354;49.832;10.746;2022-07-19T09:27:22;43.10;27.60
8633;DHT22;4354;49.832;10.746;2022-07-19T09:29:54;43.80;27.80
8633;DHT22;4354;49.832;10.746;2022-07-19T09:32:23;44.80;27.30
8633;DHT22;4354;49.832;10.746;2022-07-19T09:34:55;46.00;26.60
8633;DHT22;4354;49.832;10.746;2022-07-19T09:37:25;46.00;27.50
8633;DHT22;4354;49.832;10.746;2022-07-19T09:39:54;46.10;27.40
8633;DHT22;4354;49.832;10.746;2022-07-19T09:42:23;46.60;27.00
8633;DHT22;4354;49.832;10.746;2022-07-19T09:44:59;46.90;25.20
8633;DHT22;4354;49.832;10.746;2022-07-19T09:47:34;46.60;25.10
8633;DHT22;4354;49.832;10.746;2022-07-19T09:50:06;46.90;25.20
8633;DHT22;4354;49.832;10.746;2022-07-19T09:52:35;46.30;25.00
8633;DHT22;4354;49.832;10.746;2022-07-19T09:55:12;46.70;25.40
8633;DHT22;4354;49.832;10.746;2022-07-19T09:57:42;46.10;25.30
8633;DHT22;4354;49.832;10.746;2022-07-19T10:00:10;45.60;25.60
8633;DHT22;4354;49.832;10.746;2022-07-19T10:02:43;44.30;26.30
8633;DHT22;4354;49.832;10.746;2022-07-19T10:05:12;45.00;26.50
8633;DHT22;4354;49.832;10.746;2022-07-19T10:07:40;45.20;26.00
8633;DHT22;4354;49.832;10.746;2022-07-19T10:10:09;45.70;26.30
8633;DHT22;4354;49.832;10.746;2022-07-19T10:12:38;45.30;25.30
8633;DHT22;4354;49.832;10.746;2022-07-19T10:15:06;45.60;24.70
8633;DHT22;4354;49.832;10.746;2022-07-19T10:20:27;45.20;25.90
8633;DHT22;4354;49.832;10.746;2022-07-19T10:22:59;46.20;25.40
8633;DHT22;4354;49.832;10.746;2022-07-19T10:25:44;46.70;24.70
8633;DHT22;4354;49.832;10.746;2022-07-19T10:28:36;46.10;24.40
8633;DHT22;4354;49.832;10.746;2022-07-19T10:31:28;46.30;24.70
8633;DHT22;4354;49.832;10.746;2022-07-19T10:34:03;46.60;24.60
8633;DHT22;4354;49.832;10.746;2022-07-19T10:42:04;46.90;24.70
8633;DHT22;4354;49.832;10.746;2022-07-19T10:44:32;45.80;25.40
8633;DHT22;4354;49.832;10.746;2022-07-19T10:46:59;45.80;24.50
8633;DHT22;4354;49.832;10.746;2022-07-19T10:49:46;45.40;25.90
8633;DHT22;4354;49.832;10.746;2022-07-19T11:00:42;45.90;24.00
8633;DHT22;4354;49.832;10.746;2022-07-19T11:05:55;45.50;24.30
8633;DHT22;4354;49.832;10.746;2022-07-19T11:08:42;45.80;23.90
8633;DHT22;4354;49.832;10.746;2022-07-19T11:11:13;45.60;23.80
8633;DHT22;4354;49.832;10.746;2022-07-19T11:13:47;44.10;24.30
8633;DHT22;4354;49.832;10.746;2022-07-19T11:16:15;43.60;24.80
8633;DHT22;4354;49.832;10.746;2022-07-19T11:18:43;43.70;25.20
8633;DHT22;4354;49.832;10.746;2022-07-19T11:21:13;43.50;24.90
8633;DHT22;4354;49.832;10.746;2022-07-19T11:23:40;44.20;25.20
8633;DHT22;4354;49.832;10.746;2022-07-19T11:28:38;43.50;25.00
8633;DHT22;4354;49.832;10.746;2022-07-19T11:31:15;42.40;25.40
8633;DHT22;4354;49.832;10.746;2022-07-19T11:33:44;42.90;25.30
8633;DHT22;4354;49.832;10.746;2022-07-19T11:36:12;43.30;25.60
8633;DHT22;4354;49.832;10.746;2022-07-19T11:38:51;42.70;25.10
8633;DHT22;4354;49.832;10.746;2022-07-19T11:41:25;42.20;25.40
8633;DHT22;4354;49.832;10.746;2022-07-19T11:44:04;41.30;25.20
8633;DHT22;4354;49.832;10.746;2022-07-19T11:46:34;41.60;25.50
8633;DHT22;4354;49.832;10.746;2022-07-19T11:49:04;41.40;25.80
8633;DHT22;4354;49.832;10.746;2022-07-19T11:51:32;41.40;26.60
8633;DHT22;4354;49.832;10.746;2022-07-19T11:54:01;41.70;26.30
8633;DHT22;4354;49.832;10.746;2022-07-19T11:56:30;41.70;26.30
8633;DHT22;4354;49.832;10.746;2022-07-19T11:58:59;41.80;25.80
8633;DHT22;4354;49.832;10.746;2022-07-19T12:01:35;40.80;25.30
8633;DHT22;4354;49.832;10.746;2022-07-19T12:04:10;41.30;25.90
8633;DHT22;4354;49.832;10.746;2022-07-19T12:09:11;40.80;26.20
8633;DHT22;4354;49.832;10.746;2022-07-19T12:11:44;41.00;26.20
8633;DHT22;4354;49.832;10.746;2022-07-19T12:14:26;40.00;25.70
8633;DHT22;4354;49.832;10.746;2022-07-19T12:19:40;40.20;26.30
8633;DHT22;4354;49.832;10.746;2022-07-19T12:22:36;40.00;26.30
8633;DHT22;4354;49.832;10.746;2022-07-19T12:25:06;39.20;26.20
8633;DHT22;4354;49.832;10.746;2022-07-19T12:27:33;38.40;26.20
8633;DHT22;4354;49.832;10.746;2022-07-19T12:30:01;38.40;26.90
8633;DHT22;4354;49.832;10.746;2022-07-19T12:32:34;38.60;27.20
8633;DHT22;4354;49.832;10.746;2022-07-19T12:35:20;38.50;27.40
8633;DHT22;4354;49.832;10.746;2022-07-19T12:37:48;38.20;27.40
8633;DHT22;4354;49.832;10.746;2022-07-19T12:40:24;38.20;27.70
8633;DHT22;4354;49.832;10.746;2022-07-19T12:42:57;38.20;28.00
8633;DHT22;4354;49.832;10.746;2022-07-19T12:45:41;38.20;28.60
8633;DHT22;4354;49.832;10.746;2022-07-19T12:48:12;37.80;28.50
8633;DHT22;4354;49.832;10.746;2022-07-19T12:50:42;37.60;28.80
8633;DHT22;4354;49.832;10.746;2022-07-19T12:53:12;37.50;29.50
8633;DHT22;4354;49.832;10.746;2022-07-19T12:55:41;37.60;29.40
8633;DHT22;4354;49.832;10.746;2022-07-19T12:58:13;37.10;28.40
8633;DHT22;4354;49.832;10.746;2022-07-19T13:00:40;36.80;29.10
8633;DHT22;4354;49.832;10.746;2022-07-19T13:03:08;36.70;29.20
8633;DHT22;4354;49.832;10.746;2022-07-19T13:05:36;37.00;29.50
8633;DHT22;4354;49.832;10.746;2022-07-19T13:08:03;37.10;28.80
8633;DHT22;4354;49.832;10.746;2022-07-19T13:10:31;37.10;28.70
8633;DHT22;4354;49.832;10.746;2022-07-19T13:12:58;37.10;28.80
8633;DHT22;4354;49.832;10.746;2022-07-19T13:15:25;37.30;28.70
8633;DHT22;4354;49.832;10.746;2022-07-19T13:17:52;37.50;28.80
8633;DHT22;4354;49.832;10.746;2022-07-19T13:20:27;37.60;28.30
8633;DHT22;4354;49.832;10.746;2022-07-19T13:22:54;37.10;27.50
8633;DHT22;4354;49.832;10.746;2022-07-19T13:25:21;36.80;27.40
8633;DHT22;4354;49.832;10.746;2022-07-19T13:28:07;36.90;27.40
8633;DHT22;4354;49.832;10.746;2022-07-19T13:30:34;36.70;27.90
8633;DHT22;4354;49.832;10.746;2022-07-19T13:33:03;36.50;28.70
8633;DHT22;4354;49.832;10.746;2022-07-19T13:35:34;36.50;29.10
8633;DHT22;4354;49.832;10.746;2022-07-19T13:38:01;36.50;29.00
8633;DHT22;4354;49.832;10.746;2022-07-19T13:40:28;36.60;29.00
8633;DHT22;4354;49.832;10.746;2022-07-19T13:42:55;36.70;28.70
8633;DHT22;4354;49.832;10.746;2022-07-19T13:45:23;36.70;29.70
8633;DHT22;4354;49.832;10.746;2022-07-19T13:47:51;36.30;29.50
8633;DHT22;4354;49.832;10.746;2022-07-19T13:50:27;36.10;29.00
8633;DHT22;4354;49.832;10.746;2022-07-19T13:52:54;35.90;28.90
8633;DHT22;4354;49.832;10.746;2022-07-19T13:55:21;35.80;29.20
8633;DHT22;4354;49.832;10.746;2022-07-19T13:57:48;35.80;29.10
8633;DHT22;4354;49.832;10.746;2022-07-19T14:00:15;35.90;29.40
8633;DHT22;4354;49.832;10.746;2022-07-19T14:02:44;35.70;29.10
8633;DHT22;4354;49.832;10.746;2022-07-19T14:05:12;35.60;29.60
8633;DHT22;4354;49.832;10.746;2022-07-19T14:07:39;35.30;29.90
8633;DHT22;4354;49.832;10.746;2022-07-19T14:10:07;35.60;29.80
8633;DHT22;4354;49.832;10.746;2022-07-19T14:12:34;35.90;30.20
8633;DHT22;4354;49.832;10.746;2022-07-19T14:15:01;35.80;29.00
8633;DHT22;4354;49.832;10.746;2022-07-19T14:17:29;35.80;29.00
8633;DHT22;4354;49.832;10.746;2022-07-19T14:19:57;35.80;29.30
8633;DHT22;4354;49.832;10.746;2022-07-19T14:22:24;35.70;29.30
8633;DHT22;4354;49.832;10.746;2022-07-19T14:24:51;35.60;29.10
8633;DHT22;4354;49.832;10.746;2022-07-19T14:27:18;35.70;28.30
8633;DHT22;4354;49.832;10.746;2022-07-19T14:29:45;35.80;29.00
8633;DHT22;4354;49.832;10.746;2022-07-19T14:32:12;35.80;29.10
8633;DHT22;4354;49.832;10.746;2022-07-19T14:34:39;35.80;29.50
8633;DHT22;4354;49.832;10.746;2022-07-19T14:37:06;35.70;29.40
8633;DHT22;4354;49.832;10.746;2022-07-19T14:39:34;35.60;29.70
8633;DHT22;4354;49.832;10.746;2022-07-19T14:42:01;35.30;29.00
8633;DHT22;4354;49.832;10.746;2022-07-19T14:44:30;35.20;29.40
8633;DHT22;4354;49.832;10.746;2022-07-19T14:46:59;35.30;29.90
8633;DHT22;4354;49.832;10.746;2022-07-19T14:49:26;35.20;30.20
8633;DHT22;4354;49.832;10.746;2022-07-19T14:51:53;35.30;30.70
8633;DHT22;4354;49.832;10.746;2022-07-19T14:54:20;35.40;29.80
8633;DHT22;4354;49.832;10.746;2022-07-19T14:56:51;35.40;29.70
8633;DHT22;4354;49.832;10.746;2022-07-19T14:59:19;35.30;29.20
8633;DHT22;4354;49.832;10.746;2022-07-19T15:01:48;35.10;28.60
8633;DHT22;4354;49.832;10.746;2022-07-19T15:04:16;35.20;29.50
8633;DHT22;4354;49.832;10.746;2022-07-19T15:06:43;35.10;29.30
8633;DHT22;4354;49.832;10.746;2022-07-19T15:09:11;35.00;29.70
8633;DHT22;4354;49.832;10.746;2022-07-19T15:11:42;35.10;30.10
8633;DHT22;4354;49.832;10.746;2022-07-19T15:14:09;35.10;29.90
8633;DHT22;4354;49.832;10.746;2022-07-19T15:16:36;35.10;29.20
8633;DHT22;4354;49.832;10.746;2022-07-19T15:19:03;35.20;29.70
8633;DHT22;4354;49.832;10.746;2022-07-19T15:21:33;35.20;29.90
8633;DHT22;4354;49.832;10.746;2022-07-19T15:24:03;35.20;29.40
8633;DHT22;4354;49.832;10.746;2022-07-19T15:26:30;35.20;29.80
8633;DHT22;4354;49.832;10.746;2022-07-19T15:28:57;35.10;29.30
8633;DHT22;4354;49.832;10.746;2022-07-19T15:31:25;35.10;29.50
8633;DHT22;4354;49.832;10.746;2022-07-19T15:33:52;35.10;29.70
8633;DHT22;4354;49.832;10.746;2022-07-19T15:36:19;34.90;29.80
8633;DHT22;4354;49.832;10.746;2022-07-19T15:38:46;35.00;29.30
8633;DHT22;4354;49.832;10.746;2022-07-19T15:41:14;35.00;29.70
8633;DHT22;4354;49.832;10.746;2022-07-19T15:43:54;34.90;30.00
8633;DHT22;4354;49.832;10.746;2022-07-19T15:46:21;34.90;30.00
8633;DHT22;4354;49.832;10.746;2022-07-19T15:48:48;34.90;30.40
8633;DHT22;4354;49.832;10.746;2022-07-19T15:51:16;34.80;31.00
8633;DHT22;4354;49.832;10.746;2022-07-19T15:53:43;34.80;29.60
8633;DHT22;4354;49.832;10.746;2022-07-19T15:56:11;34.80;30.00
8633;DHT22;4354;49.832;10.746;2022-07-19T15:58:37;34.80;29.80
8633;DHT22;4354;49.832;10.746;2022-07-19T16:01:05;34.80;30.30
8633;DHT22;4354;49.832;10.746;2022-07-19T16:03:32;34.70;30.50
8633;DHT22;4354;49.832;10.746;2022-07-19T16:05:58;34.70;30.40
8633;DHT22;4354;49.832;10.746;2022-07-19T16:08:26;34.70;30.90
8633;DHT22;4354;49.832;10.746;2022-07-19T16:10:53;34.70;30.80
8633;DHT22;4354;49.832;10.746;2022-07-19T16:13:20;34.60;30.80
8633;DHT22;4354;49.832;10.746;2022-07-19T16:15:46;34.60;31.50
8633;DHT22;4354;49.832;10.746;2022-07-19T16:18:17;34.60;30.90
8633;DHT22;4354;49.832;10.746;2022-07-19T16:20:44;34.50;30.80